createdAt,value
2022-10-22T00:01:07.591Z,100900.13
2022-10-22T00:03:35.901Z,100892.19
2022-10-22T00:06:03.791Z,100897.53
2022-10-22T00:08:32.075Z,100897.53
2022-10-22T00:11:00.267Z,100902.03
2022-10-22T00:13:28.226Z,100894.75
2022-10-22T00:15:56.237Z,100894.75
2022-10-22T00:18:25.466Z,100903.66
2022-10-22T00:20:53.444Z,100906.31
2022-10-22T00:23:23.618Z,100902.78
2022-10-22T00:25:51.543Z,100906.31
2022-10-22T00:28:19.437Z,100917.16
2022-10-22T00:30:47.819Z,100915.34
2022-10-22T00:33:15.677Z,100916.19
2022-10-22T00:35:45.137Z,100915.44
2022-10-22T00:38:13.042Z,100910.94
2022-10-22T00:40:40.969Z,100910.94
2022-10-22T00:43:12.263Z,100902.03
2022-10-22T00:45:40.749Z,100906.63
2022-10-22T00:48:11.619Z,100910.16
2022-10-22T00:50:42.726Z,100904.81
2022-10-22T00:53:15.598Z,100912.94
2022-10-22T00:55:46.265Z,100913.81
2022-10-22T00:58:15.216Z,100912.94
2022-10-22T01:00:43.541Z,100911.31
2022-10-22T01:03:12.072Z,100909.50
2022-10-22T01:05:44.380Z,100914.84
2022-10-22T01:08:20.477Z,100916.66
2022-10-22T01:10:58.656Z,100908.75
2022-10-22T01:13:36.993Z,100914.00
2022-10-22T01:16:12.372Z,100911.44
2022-10-22T01:18:49.943Z,100916.78
2022-10-22T01:21:29.257Z,100915.88
2022-10-22T01:24:37.323Z,100913.28
2022-10-22T01:27:16.468Z,100906.22
2022-10-22T01:29:51.896Z,100913.28
2022-10-22T01:32:23.358Z,100907.06
2022-10-22T01:34:57.341Z,100902.69
2022-10-22T01:37:32.104Z,100900.97
2022-10-22T01:40:02.834Z,100898.28
2022-10-22T01:42:30.769Z,100894.72
2022-10-22T01:45:00.058Z,100894.84
2022-10-22T01:47:40.327Z,100900.19
2022-10-22T01:50:26.010Z,100911.88
2022-10-22T01:53:07.346Z,100900.31
2022-10-22T01:55:44.791Z,100899.44
2022-10-22T01:58:23.297Z,100903.91
2022-10-22T02:01:01.055Z,100905.66
2022-10-22T02:03:35.950Z,100911.00
2022-10-22T02:06:12.685Z,100910.16
2022-10-22T02:08:41.620Z,100906.59
2022-10-22T02:11:10.068Z,100906.59
2022-10-22T02:13:44.126Z,100903.91
2022-10-22T02:16:19.086Z,100910.22
2022-10-22T02:18:50.793Z,100903.06
2022-10-22T02:21:18.914Z,100904.88
2022-10-22T02:23:49.576Z,100910.22
2022-10-22T02:26:24.009Z,100901.44
2022-10-22T02:28:59.499Z,100901.44
2022-10-22T02:31:32.062Z,100896.94
2022-10-22T02:34:07.934Z,100901.44
2022-10-22T02:36:36.317Z,100904.22
2022-10-22T02:39:09.121Z,100898.84
2022-10-22T02:41:38.603Z,100898.84
2022-10-22T02:44:10.092Z,100893.59
2022-10-22T02:46:40.579Z,100902.50
2022-10-22T02:49:08.767Z,100901.53
2022-10-22T02:51:36.662Z,100901.63
2022-10-22T02:54:04.902Z,100900.78
2022-10-22T02:56:32.952Z,100899.91
2022-10-22T02:59:02.758Z,100907.97
2022-10-22T03:01:30.809Z,100901.81
2022-10-22T03:04:00.078Z,100906.22
2022-10-22T03:06:28.023Z,100901.81
2022-10-22T03:08:55.938Z,100895.59
2022-10-22T03:11:23.853Z,100895.59
2022-10-22T03:13:51.753Z,100897.44
2022-10-22T03:16:19.712Z,100905.47
2022-10-22T03:18:47.627Z,100892.16
2022-10-22T03:21:26.023Z,100897.50
2022-10-22T03:23:55.192Z,100899.31
2022-10-22T03:26:23.387Z,100906.44
2022-10-22T03:28:51.439Z,100896.75
2022-10-22T03:31:19.429Z,100902.00
2022-10-22T03:33:47.694Z,100903.09
2022-10-22T03:36:17.036Z,100913.78
2022-10-22T03:38:45.051Z,100913.78
2022-10-22T03:41:13.110Z,100913.00
2022-10-22T03:43:41.475Z,100919.16
2022-10-22T03:46:09.363Z,100920.19
2022-10-22T03:48:37.493Z,100928.09
2022-10-22T03:51:05.961Z,100924.56
2022-10-22T03:53:35.319Z,100920.19
2022-10-22T03:56:03.506Z,100923.72
2022-10-22T03:58:31.457Z,100933.56
2022-10-22T04:01:04.991Z,100934.44
2022-10-22T04:03:32.959Z,100925.66
2022-10-22T04:06:03.076Z,100939.03
2022-10-22T04:08:31.141Z,100940.75
2022-10-22T04:11:00.492Z,100934.59
2022-10-22T04:13:28.488Z,100943.50
2022-10-22T04:15:56.557Z,100940.94
2022-10-22T04:18:26.516Z,100941.78
2022-10-22T04:20:54.470Z,100940.94
2022-10-22T04:23:22.692Z,100945.31
2022-10-22T04:25:50.636Z,100938.25
2022-10-22T04:28:19.896Z,100939.22
2022-10-22T04:30:47.813Z,100949.06
2022-10-22T04:33:15.760Z,100944.47
2022-10-22T04:35:43.676Z,100943.59
2022-10-22T04:38:11.706Z,100937.28
2022-10-22T04:40:39.622Z,100948.00
2022-10-22T04:43:07.613Z,100936.53
2022-10-22T04:45:37.476Z,100940.94
2022-10-22T04:48:05.707Z,100947.13
2022-10-22T04:50:33.921Z,100939.09
2022-10-22T04:53:01.863Z,100933.84
2022-10-22T04:57:58.626Z,100942.63
2022-10-22T05:00:26.573Z,100940.94
2022-10-22T05:02:55.824Z,100948.00
2022-10-22T05:05:23.772Z,100952.50
2022-10-22T05:07:52.493Z,100953.47
2022-10-22T05:10:20.418Z,100950.69
2022-10-22T05:12:48.302Z,100943.50
2022-10-22T05:15:16.344Z,100949.81
2022-10-22T05:17:44.308Z,100950.78
2022-10-22T05:20:13.787Z,100949.81
2022-10-22T05:22:41.698Z,100955.09
2022-10-22T05:25:09.979Z,100953.34
2022-10-22T05:27:38.111Z,100957.00
2022-10-22T05:30:07.554Z,100958.81
2022-10-22T05:32:36.536Z,100961.50
2022-10-22T05:35:04.609Z,100955.34
2022-10-22T05:37:33.963Z,100962.53
2022-10-22T05:40:12.713Z,100963.38
2022-10-22T05:42:49.782Z,100967.88
2022-10-22T05:45:17.801Z,100965.31
2022-10-22T05:47:45.724Z,100967.03
2022-10-22T05:50:13.635Z,100966.16
2022-10-22T05:52:43.116Z,100971.53
2022-10-22T05:55:11.034Z,100964.44
2022-10-22T05:57:40.708Z,100976.88
2022-10-22T06:00:12.808Z,100976.03
2022-10-22T06:02:43.934Z,100984.91
2022-10-22T06:05:14.112Z,100992.94
2022-10-22T06:07:43.667Z,100985.88
2022-10-22T06:10:18.347Z,100986.72
2022-10-22T06:12:48.254Z,100985.88
2022-10-22T06:15:18.885Z,101000.97
2022-10-22T06:17:47.095Z,101001.06
2022-10-22T06:20:15.854Z,101001.06
2022-10-22T06:22:45.079Z,100997.44
2022-10-22T06:25:14.194Z,100999.25
2022-10-22T06:27:42.093Z,101004.59
2022-10-22T06:30:11.174Z,101007.28
2022-10-22T06:32:39.399Z,101009.00
2022-10-22T06:35:08.522Z,101018.75
2022-10-22T06:37:36.488Z,101018.00
2022-10-22T06:40:06.434Z,101019.72
2022-10-22T06:42:34.321Z,101018.84
2022-10-22T06:47:35.130Z,101030.41
2022-10-22T06:50:05.596Z,101039.31
2022-10-22T06:52:35.819Z,101047.34
2022-10-22T06:55:05.798Z,101048.19
2022-10-22T06:57:33.995Z,101051.72
2022-10-22T07:00:01.941Z,101056.22
2022-10-22T07:02:29.870Z,101062.44
2022-10-22T07:04:57.847Z,101060.66
2022-10-22T07:07:25.729Z,101059.78
2022-10-22T07:09:53.746Z,101076.72
2022-10-22T07:12:23.014Z,101074.03
2022-10-22T07:14:53.845Z,101069.56
2022-10-22T07:17:21.765Z,101071.25
2022-10-22T07:19:51.252Z,101073.09
2022-10-22T07:22:20.270Z,101086.47
2022-10-22T07:24:48.120Z,101089.16
2022-10-22T07:27:16.112Z,101087.59
2022-10-22T07:29:45.436Z,101083.28
2022-10-22T07:32:13.438Z,101093.03
2022-10-22T07:34:43.147Z,101101.91
2022-10-22T07:37:11.965Z,101104.44
2022-10-22T07:39:39.908Z,101107.09
2022-10-22T07:42:07.899Z,101107.09
2022-10-22T07:44:35.775Z,101111.78
2022-10-22T07:47:05.102Z,101106.34
2022-10-22T07:49:33.011Z,101111.59
2022-10-22T07:52:00.995Z,101116.88
2022-10-22T07:54:31.336Z,101114.09
2022-10-22T07:56:59.275Z,101122.91
2022-10-22T07:59:27.361Z,101121.09
2022-10-22T08:01:55.314Z,101122.81
2022-10-22T08:04:24.537Z,101127.22
2022-10-22T08:06:52.538Z,101131.59
2022-10-22T08:09:20.404Z,101134.28
2022-10-22T08:11:48.323Z,101136.78
2022-10-22T08:14:16.183Z,101137.66
2022-10-22T08:16:44.210Z,101134.03
2022-10-22T08:19:12.119Z,101126.88
2022-10-22T08:21:41.523Z,101138.34
2022-10-22T08:24:09.514Z,101140.06
2022-10-22T08:26:37.490Z,101137.38
2022-10-22T08:29:05.528Z,101148.97
2022-10-22T08:31:33.777Z,101143.53
2022-10-22T08:34:02.157Z,101146.19
2022-10-22T08:36:30.137Z,101157.78
2022-10-22T08:38:59.372Z,101152.31
2022-10-22T08:41:27.586Z,101168.38
2022-10-22T08:44:17.154Z,101162.00
2022-10-22T08:47:07.505Z,101165.53
2022-10-22T08:49:42.021Z,101162.78
2022-10-22T08:52:15.502Z,101169.00
2022-10-22T08:54:52.706Z,101171.69
2022-10-22T08:57:32.645Z,101176.06
2022-10-22T09:00:06.180Z,101181.44
2022-10-22T09:02:44.348Z,101178.56
2022-10-22T09:05:34.074Z,101185.75
2022-10-22T09:08:02.261Z,101200.88
2022-10-22T09:10:36.670Z,101191.88
2022-10-22T09:13:06.305Z,101191.88
2022-10-22T09:15:34.290Z,101193.63
2022-10-22T09:18:15.492Z,101191.81
2022-10-22T09:20:51.171Z,101200.72
2022-10-22T09:23:30.359Z,101211.44
2022-10-22T09:26:00.921Z,101218.53
2022-10-22T09:28:28.918Z,101220.34
2022-10-22T09:33:32.843Z,101222.91
2022-10-22T09:36:03.640Z,101226.44
2022-10-22T09:38:34.328Z,101235.38
2022-10-22T09:41:03.994Z,101238.06
2022-10-22T09:43:33.179Z,101233.63
2022-10-22T09:46:03.279Z,101236.25
2022-10-22T09:48:34.623Z,101244.28
2022-10-22T09:51:08.065Z,101244.28
2022-10-22T09:53:38.923Z,101250.50
2022-10-22T09:56:11.730Z,101255.00
2022-10-22T09:58:49.196Z,101257.66
2022-10-22T10:01:19.704Z,101262.06
2022-10-22T10:03:49.533Z,101263.03
2022-10-22T10:06:19.881Z,101267.44
2022-10-22T10:08:48.368Z,101266.47
2022-10-22T10:11:29.283Z,101270.09
2022-10-22T10:14:06.301Z,101272.78
2022-10-22T10:16:50.893Z,101282.53
2022-10-22T10:19:44.441Z,101282.66
2022-10-22T10:22:28.384Z,101286.94
2022-10-22T10:25:13.733Z,101285.22
2022-10-22T10:27:46.811Z,101284.25
2022-10-22T10:30:19.013Z,101294.06
2022-10-22T10:33:03.850Z,101296.78
2022-10-22T10:35:40.408Z,101300.59
2022-10-22T10:38:28.741Z,101312.28
2022-10-22T10:41:06.639Z,101308.75
2022-10-22T10:43:43.943Z,101310.47
2022-10-22T10:46:23.187Z,101304.16
2022-10-22T10:48:53.852Z,101313.06
2022-10-22T10:51:38.757Z,101321.00
2022-10-22T10:54:19.623Z,101322.72
2022-10-22T10:56:52.895Z,101309.34
2022-10-22T10:59:35.277Z,101310.13
2022-10-22T11:02:20.350Z,101310.03
2022-10-22T11:05:23.046Z,101312.63
2022-10-22T11:07:57.343Z,101309.06
2022-10-22T11:10:35.167Z,101307.28
2022-10-22T11:13:12.621Z,101306.31
2022-10-22T11:15:45.606Z,101306.31
2022-10-22T11:18:21.945Z,101307.19
2022-10-22T11:21:08.174Z,101308.03
2022-10-22T11:23:42.405Z,101304.41
2022-10-22T11:26:18.532Z,101306.22
2022-10-22T11:28:52.011Z,101305.25
2022-10-22T11:31:26.474Z,101309.75
2022-10-22T11:34:04.967Z,101320.47
2022-10-22T11:36:39.979Z,101323.09
2022-10-22T11:39:08.114Z,101315.91
2022-10-22T11:41:37.143Z,101322.22
2022-10-22T11:44:14.507Z,101318.59
2022-10-22T11:46:48.258Z,101315.06
2022-10-22T11:49:25.442Z,101319.34
2022-10-22T11:52:08.764Z,101320.31
2022-10-22T11:54:43.581Z,101316.75
2022-10-22T11:57:20.396Z,101312.38
2022-10-22T11:59:53.581Z,101325.66
2022-10-22T12:02:32.711Z,101308.72
2022-10-22T12:05:21.124Z,101312.25
2022-10-22T12:07:57.006Z,101313.22
2022-10-22T12:10:28.654Z,101307.00
2022-10-22T12:12:59.132Z,101313.22
2022-10-22T12:15:28.699Z,101316.88
2022-10-22T12:18:06.581Z,101321.25
2022-10-22T12:20:34.589Z,101321.34
2022-10-22T12:23:02.751Z,101313.41
2022-10-22T12:25:35.641Z,101314.25
2022-10-22T12:28:04.119Z,101313.41
2022-10-22T12:30:34.769Z,101307.19
2022-10-22T12:33:07.485Z,101316.19
2022-10-22T12:35:42.697Z,101329.56
2022-10-22T12:38:16.065Z,101326.91
2022-10-22T12:40:47.491Z,101325.16
2022-10-22T12:43:19.284Z,101319.78
2022-10-22T12:45:49.171Z,101331.47
2022-10-22T12:48:23.050Z,101334.06
2022-10-22T12:50:54.101Z,101326.97
2022-10-22T12:53:26.174Z,101325.34
2022-10-22T12:55:56.027Z,101336.81
2022-10-22T12:58:30.281Z,101327.06
2022-10-22T13:01:02.169Z,101333.38
2022-10-22T13:03:35.171Z,101337.78
2022-10-22T13:06:24.844Z,101330.69
2022-10-22T13:09:07.409Z,101339.59
2022-10-22T13:11:39.937Z,101331.56
2022-10-22T13:14:19.963Z,101339.59
2022-10-22T13:17:10.918Z,101338.75
2022-10-22T13:19:49.886Z,101336.91
2022-10-22T13:22:33.239Z,101333.38
2022-10-22T13:25:17.168Z,101335.16
2022-10-22T13:27:45.971Z,101340.53
2022-10-22T13:30:21.570Z,101339.66
2022-10-22T13:32:55.002Z,101336.13
2022-10-22T13:35:26.964Z,101345.88
2022-10-22T13:37:55.078Z,101338.81
2022-10-22T13:40:23.086Z,101342.34
2022-10-22T13:42:51.215Z,101337.94
2022-10-22T13:45:19.884Z,101341.47
2022-10-22T13:47:51.749Z,101334.41
2022-10-22T13:50:21.379Z,101338.91
2022-10-22T13:52:52.999Z,101338.91
2022-10-22T13:55:25.473Z,101346.09
2022-10-22T13:57:57.555Z,101341.59
2022-10-22T14:00:26.211Z,101346.94
2022-10-22T14:02:56.399Z,101347.91
2022-10-22T14:05:24.661Z,101355.94
2022-10-22T14:07:54.264Z,101355.84
2022-10-22T14:10:25.852Z,101356.81
2022-10-22T14:12:54.682Z,101350.59
2022-10-22T14:15:24.974Z,101346.94
2022-10-22T14:17:56.126Z,101351.34
2022-10-22T14:20:26.776Z,101346.94
2022-10-22T14:22:57.288Z,101349.63
2022-10-22T14:25:27.884Z,101352.31
2022-10-22T14:27:56.603Z,101355.84
2022-10-22T14:30:29.677Z,101352.31
2022-10-22T14:32:59.036Z,101343.47
2022-10-22T14:35:27.051Z,101350.59
2022-10-22T14:37:58.261Z,101344.25
2022-10-22T14:40:26.183Z,101349.69
2022-10-22T14:42:54.062Z,101349.63
2022-10-22T14:45:25.216Z,101352.31
2022-10-22T14:47:54.914Z,101356.81
2022-10-22T14:50:24.292Z,101352.38
2022-10-22T14:52:54.333Z,101355.03
2022-10-22T14:55:26.212Z,101360.41
2022-10-22T14:57:54.287Z,101361.28
2022-10-22T15:00:22.473Z,101365.75
2022-10-22T15:02:50.433Z,101358.69
2022-10-22T15:05:18.451Z,101374.69
2022-10-22T15:07:46.666Z,101371.13
2022-10-22T15:10:14.613Z,101378.28
2022-10-22T15:12:43.943Z,101374.75
2022-10-22T15:15:12.326Z,101385.47
2022-10-22T15:17:40.553Z,101375.63
2022-10-22T15:20:09.372Z,101384.63
2022-10-22T15:22:37.343Z,101382.78
2022-10-22T15:25:09.475Z,101390.84
2022-10-22T15:27:37.467Z,101391.78
2022-10-22T15:30:08.733Z,101390.38
2022-10-22T15:32:36.614Z,101384.88
2022-10-22T15:35:05.950Z,101394.84
2022-10-22T15:37:33.975Z,101400.97
2022-10-22T15:40:03.816Z,101392.91
2022-10-22T15:42:31.841Z,101402.78
2022-10-22T15:45:00.553Z,101402.72
2022-10-22T15:47:31.330Z,101409.78
2022-10-22T15:49:59.243Z,101401.59
2022-10-22T15:52:27.554Z,101403.22
2022-10-22T15:54:55.566Z,101403.91
2022-10-22T15:57:23.783Z,101406.53
2022-10-22T15:59:52.149Z,101416.19
2022-10-22T16:02:20.173Z,101404.47
2022-10-22T16:04:49.597Z,101407.03
2022-10-22T16:07:19.843Z,101412.25
2022-10-22T16:09:50.758Z,101406.91
2022-10-22T16:12:18.642Z,101407.69
2022-10-22T16:14:51.493Z,101404.06
2022-10-22T16:17:19.540Z,101404.81
2022-10-22T16:19:51.197Z,101413.66
2022-10-22T16:22:19.164Z,101410.88
2022-10-22T16:24:47.094Z,101412.63
2022-10-22T16:27:15.295Z,101417.03
2022-10-22T16:29:43.471Z,101418.75
2022-10-22T16:32:13.225Z,101413.34
2022-10-22T16:34:42.011Z,101414.09
2022-10-22T16:37:11.599Z,101420.41
2022-10-22T16:39:39.709Z,101411.41
2022-10-22T16:42:07.766Z,101419.34
2022-10-22T16:44:35.709Z,101416.78
2022-10-22T16:47:03.688Z,101421.97
2022-10-22T16:49:31.562Z,101419.28
2022-10-22T16:51:59.488Z,101422.94
2022-10-22T16:54:29.033Z,101422.84
2022-10-22T16:56:57.017Z,101433.44
2022-10-22T16:59:25.139Z,101428.97
2022-10-22T17:01:54.603Z,101428.97
2022-10-22T17:04:23.645Z,101438.75
2022-10-22T17:06:51.609Z,101439.59
2022-10-22T17:09:19.629Z,101443.16
2022-10-22T17:11:48.953Z,101438.66
2022-10-22T17:14:16.898Z,101441.31
2022-10-22T17:16:45.071Z,101447.53
2022-10-22T17:19:15.700Z,101453.78
2022-10-22T17:21:44.196Z,101444.88
2022-10-22T17:24:12.300Z,101451.03
2022-10-22T17:26:40.278Z,101446.53
2022-10-22T17:29:09.485Z,101445.41
2022-10-22T17:31:38.486Z,101456.13
2022-10-22T17:34:08.501Z,101451.72
2022-10-22T17:36:37.729Z,101453.44
2022-10-22T17:39:08.780Z,101458.81
2022-10-22T17:41:38.456Z,101456.91
2022-10-22T17:44:09.931Z,101460.34
2022-10-22T17:46:38.836Z,101463.03
2022-10-22T17:49:13.340Z,101467.44
2022-10-22T17:51:41.727Z,101462.09
2022-10-22T17:54:12.026Z,101464.75
2022-10-22T17:56:40.761Z,101470.13
2022-10-22T17:59:14.918Z,101469.19
2022-10-22T18:01:45.742Z,101464.75
2022-10-22T18:04:17.129Z,101455.78
2022-10-22T18:06:46.701Z,101452.22
2022-10-22T18:09:18.488Z,101467.28
2022-10-22T18:11:47.948Z,101461.91
2022-10-22T18:14:20.698Z,101467.28
2022-10-22T18:16:49.337Z,101471.78
2022-10-22T18:19:18.917Z,101468.25
2022-10-22T18:21:48.887Z,101476.28
2022-10-22T18:24:17.732Z,101474.47
2022-10-22T18:26:45.973Z,101470.91
2022-10-22T18:29:17.108Z,101474.47
2022-10-22T18:31:46.869Z,101478.09
2022-10-22T18:34:16.642Z,101473.66
2022-10-22T18:36:46.759Z,101474.56
2022-10-22T18:39:16.478Z,101474.56
2022-10-22T18:41:44.583Z,101470.06
2022-10-22T18:44:15.127Z,101479.91
2022-10-22T18:46:43.053Z,101472.81
2022-10-22T18:49:19.310Z,101474.56
2022-10-22T18:51:48.854Z,101467.44
2022-10-22T18:54:24.762Z,101475.47
2022-10-22T18:56:53.385Z,101480.84
2022-10-22T18:59:23.193Z,101476.44
2022-10-22T19:01:54.828Z,101476.44
2022-10-22T19:04:24.411Z,101476.44
2022-10-22T19:06:52.486Z,101486.31
2022-10-22T19:09:20.398Z,101482.75
2022-10-22T19:11:49.949Z,101482.75
2022-10-22T19:14:19.532Z,101479.22
2022-10-22T19:16:47.721Z,101472.91
2022-10-22T19:19:17.948Z,101478.25
2022-10-22T19:21:48.223Z,101480.09
2022-10-22T19:24:17.485Z,101470.31
2022-10-22T19:26:45.987Z,101473.00
2022-10-22T19:29:16.569Z,101471.25
2022-10-22T19:31:44.606Z,101467.63
2022-10-22T19:34:12.718Z,101462.34
2022-10-22T19:36:40.717Z,101464.06
2022-10-22T19:39:10.006Z,101464.06
2022-10-22T19:41:38.087Z,101459.66
2022-10-22T19:44:06.290Z,101463.19
2022-10-22T19:46:34.312Z,101465.88
2022-10-22T19:49:04.841Z,101463.31
2022-10-22T19:51:34.485Z,101453.44
2022-10-22T19:54:04.836Z,101452.56
2022-10-22T19:56:35.461Z,101451.72
2022-10-22T19:59:04.288Z,101446.34
2022-10-22T20:01:32.758Z,101451.72
2022-10-22T20:04:01.455Z,101450.84
2022-10-22T20:06:29.892Z,101451.88
2022-10-22T20:09:00.369Z,101457.25
2022-10-22T20:11:30.371Z,101457.25
2022-10-22T20:14:00.340Z,101459.94
2022-10-22T20:16:30.099Z,101456.28
2022-10-22T20:19:01.207Z,101474.19
2022-10-22T20:21:29.377Z,101474.19
2022-10-22T20:23:58.130Z,101475.91
2022-10-22T20:26:28.192Z,101473.31
2022-10-22T20:28:57.118Z,101470.66
2022-10-22T20:31:29.297Z,101467.00
2022-10-22T20:33:57.960Z,101475.03
2022-10-22T20:36:27.599Z,101472.31
2022-10-22T20:39:00.321Z,101464.31
2022-10-22T20:41:28.730Z,101472.38
2022-10-22T20:43:56.663Z,101473.31
2022-10-22T20:46:29.173Z,101465.38
2022-10-22T20:49:00.416Z,101456.44
2022-10-22T20:51:28.489Z,101466.25
2022-10-22T20:53:56.527Z,101466.25
2022-10-22T20:56:25.960Z,101468.91
2022-10-22T20:59:04.115Z,101460.88
2022-10-22T21:01:36.792Z,101465.38
2022-10-22T21:04:05.661Z,101465.44
2022-10-22T21:06:34.256Z,101475.22
2022-10-22T21:09:02.278Z,101477.88
2022-10-22T21:11:30.268Z,101482.38
2022-10-22T21:14:00.812Z,101486.03
2022-10-22T21:16:28.872Z,101483.34
2022-10-22T21:18:58.282Z,101478.00
2022-10-22T21:21:26.345Z,101478.00
2022-10-22T21:23:54.295Z,101478.09
2022-10-22T21:26:22.346Z,101483.44
2022-10-22T21:28:50.281Z,101476.31
2022-10-22T21:31:22.056Z,101489.66
2022-10-22T21:33:51.394Z,101482.66
2022-10-22T21:36:23.249Z,101491.53
2022-10-22T21:38:51.678Z,101496.03
2022-10-22T21:41:22.254Z,101492.41
2022-10-22T21:43:50.711Z,101482.66
2022-10-22T21:46:23.940Z,101492.41
2022-10-22T21:48:54.772Z,101475.56
2022-10-22T21:51:25.484Z,101479.00
2022-10-22T21:53:53.799Z,101476.44
2022-10-22T21:56:24.149Z,101477.38
2022-10-22T21:58:52.222Z,101477.38
2022-10-22T22:01:20.483Z,101472.94
2022-10-22T22:03:50.161Z,101472.94
2022-10-22T22:06:21.469Z,101485.50
2022-10-22T22:08:53.845Z,101480.13
2022-10-22T22:11:23.759Z,101485.59
2022-10-22T22:13:52.593Z,101486.44
2022-10-22T22:16:27.161Z,101486.44
2022-10-22T22:18:56.720Z,101487.31
2022-10-22T22:21:24.771Z,101484.72
2022-10-22T22:23:54.594Z,101482.91
2022-10-22T22:26:28.372Z,101482.91
2022-10-22T22:28:58.278Z,101481.19
2022-10-22T22:31:28.661Z,101476.69
2022-10-22T22:33:59.682Z,101474.00
2022-10-22T22:36:27.716Z,101470.38
2022-10-22T22:38:57.851Z,101463.28
2022-10-22T22:41:25.901Z,101473.03
2022-10-22T22:46:27.108Z,101465.09
2022-10-22T22:48:55.252Z,101454.38
2022-10-22T22:51:23.227Z,101448.16
2022-10-22T22:53:51.149Z,101448.22
2022-10-22T22:56:22.355Z,101446.50
2022-10-22T22:58:50.990Z,101447.38
2022-10-22T23:01:21.592Z,101438.56
2022-10-22T23:03:53.440Z,101439.50
2022-10-22T23:06:21.580Z,101433.22
2022-10-22T23:08:50.635Z,101439.59
2022-10-22T23:11:20.592Z,101449.44
2022-10-22T23:13:48.889Z,101440.56
2022-10-22T23:16:18.983Z,101431.63
2022-10-22T23:18:48.620Z,101429.91
2022-10-22T23:21:18.171Z,101432.69
2022-10-22T23:23:46.727Z,101429.13
2022-10-22T23:26:16.282Z,101433.63
2022-10-22T23:28:45.626Z,101429.13
2022-10-22T23:31:14.771Z,101425.59
2022-10-22T23:33:43.120Z,101422.97
2022-10-22T23:36:11.324Z,101421.16
2022-10-22T23:38:40.831Z,101421.16
2022-10-22T23:41:09.381Z,101421.25
2022-10-22T23:43:38.292Z,101427.47
2022-10-22T23:46:09.895Z,101424.88
2022-10-22T23:48:39.087Z,101429.38
2022-10-22T23:51:08.790Z,101430.22
2022-10-22T23:53:36.723Z,101430.28
2022-10-22T23:56:06.084Z,101428.56
2022-10-22T23:58:36.598Z,101434.78
